Time;durP1;ratioP1;P1;durP2;ratioP2;P2;SDS_P1;SDS_P2;PMS_P1;PMS_P2;Temp;Humidity;BMP_temperature;BMP_pressure;BME280_temperature;BME280_humidity;BME280_pressure;Samples;Min_cycle;Max_cycle;Signal;HPM_P1;HPM_P2
2023/07/26 00:00:10;;;;;;;3.30;2.20;;;;;;;13.08;65.41;100511.44;682991;28;1244;-84
2023/07/26 00:00:36;;;;;;;3.22;2.20;;;;;;;13.03;65.61;100508.72;688130;28;949;-83
2023/07/26 00:00:57;;;;;;;3.77;2.30;;;;;;;13.06;65.56;100505.25;690816;28;1234;-83
2023/07/26 00:01:18;;;;;;;3.92;2.50;;;;;;;13.00;65.63;100498.22;687981;28;1200;-84
2023/07/26 00:01:39;;;;;;;6.40;2.85;;;;;;;13.09;65.27;100514.03;682709;28;1289;-83
2023/07/26 00:01:59;;;;;;;6.18;2.85;;;;;;;13.11;65.26;100514.06;681052;28;1316;-83
2023/07/26 00:02:20;;;;;;;7.00;2.90;;;;;;;13.11;65.59;100514.06;683804;28;1224;-84
2023/07/26 00:02:41;;;;;;;5.50;3.00;;;;;;;13.05;65.41;100511.38;682722;28;1158;-84
2023/07/26 00:03:01;;;;;;;5.32;2.97;;;;;;;13.08;65.46;100508.81;686396;28;1322;-84
2023/07/26 00:03:31;;;;;;;4.10;2.60;;;;;;;13.08;65.54;100509.66;682675;28;835;-83
2023/07/26 00:03:58;;;;;;;3.17;2.30;;;;;;;13.09;65.40;100506.19;690934;28;827;-84
2023/07/26 00:04:18;;;;;;;4.93;2.40;;;;;;;13.12;65.37;100511.47;685139;28;1292;-85
2023/07/26 00:04:39;;;;;;;5.93;2.50;;;;;;;13.08;65.49;100506.19;680070;28;1290;-84
2023/07/26 00:05:00;;;;;;;5.43;2.30;;;;;;;13.12;65.51;100515.81;682991;29;1048;-84
2023/07/26 00:05:20;;;;;;;3.03;2.20;;;;;;;13.06;65.39;100503.53;685214;28;1067;-84
2023/07/26 00:05:41;;;;;;;3.20;2.20;;;;;;;13.09;65.40;100505.31;687880;28;1184;-84
2023/07/26 00:06:02;;;;;;;3.57;2.53;;;;;;;13.06;65.37;100495.69;688098;28;1155;-84
2023/07/26 00:06:22;;;;;;;4.05;2.78;;;;;;;13.08;65.37;100501.81;688110;28;1019;-84
2023/07/26 00:06:43;;;;;;;3.22;2.47;;;;;;;13.07;65.71;100494.81;682764;29;1104;-83
2023/07/26 00:07:04;;;;;;;4.07;2.40;;;;;;;13.07;65.49;100491.28;682776;29;1121;-84
2023/07/26 00:07:25;;;;;;;4.13;2.30;;;;;;;13.05;65.24;100496.53;687919;28;1354;-83
2023/07/26 00:07:45;;;;;;;5.45;2.40;;;;;;;13.12;65.44;100507.97;685510;28;1322;-84
2023/07/26 00:08:06;;;;;;;5.13;2.58;;;;;;;13.09;65.40;100500.94;682502;29;1074;-84
2023/07/26 00:08:27;;;;;;;4.90;2.60;;;;;;;13.15;65.40;100506.28;682613;28;1353;-83
2023/07/26 00:08:48;;;;;;;3.90;2.63;;;;;;;13.14;65.41;100503.63;685585;28;855;-85
2023/07/26 00:09:09;;;;;;;5.97;2.60;;;;;;;13.16;65.67;100504.53;687989;28;1210;-84
2023/07/26 00:09:29;;;;;;;7.05;2.67;;;;;;;13.20;65.53;100508.94;687835;28;1348;-84
2023/07/26 00:09:50;;;;;;;7.87;2.83;;;;;;;13.12;65.27;100500.09;685511;28;1249;-84
2023/07/26 00:10:11;;;;;;;4.88;2.70;;;;;;;13.12;65.41;100492.25;682566;28;1234;-84
2023/07/26 00:10:31;;;;;;;3.42;2.63;;;;;;;13.22;65.39;100503.75;682724;29;1025;-84
2023/07/26 00:10:52;;;;;;;3.47;2.70;;;;;;;13.21;65.50;100501.97;682858;29;793;-84
2023/07/26 00:11:13;;;;;;;4.50;2.80;;;;;;;13.19;65.57;100498.44;682584;29;985;-84
2023/07/26 00:11:35;;;;;;;5.57;3.10;;;;;;;13.25;65.21;100509.00;680076;29;961;-84
2023/07/26 00:11:56;;;;;;;5.68;3.03;;;;;;;13.18;65.23;100494.06;683018;29;776;-84
2023/07/26 00:12:16;;;;;;;5.25;3.03;;;;;;;13.13;65.50;100494.91;682621;28;1279;-83
2023/07/26 00:12:37;;;;;;;4.95;2.97;;;;;;;13.24;65.49;100507.25;682678;28;1197;-84
2023/07/26 00:12:58;;;;;;;5.00;3.00;;;;;;;13.21;65.29;100496.75;683754;28;1246;-84
2023/07/26 00:13:18;;;;;;;6.03;2.90;;;;;;;13.17;65.13;100501.06;685308;28;1041;-84
2023/07/26 00:13:39;;;;;;;6.00;2.97;;;;;;;13.17;65.48;100495.81;687980;28;1393;-84
2023/07/26 00:14:00;;;;;;;4.63;2.75;;;;;;;13.20;65.40;100502.84;688255;28;1395;-84
2023/07/26 00:14:21;;;;;;;4.50;2.60;;;;;;;13.18;65.21;100496.69;682582;28;1170;-84
2023/07/26 00:14:42;;;;;;;4.63;2.60;;;;;;;13.26;65.34;100510.75;686404;28;1080;-84
2023/07/26 00:15:03;;;;;;;5.00;2.70;;;;;;;13.20;65.44;100510.69;680660;28;1208;-85
2023/07/26 00:15:23;;;;;;;4.73;2.70;;;;;;;13.21;65.44;100507.22;682828;29;1017;-85
2023/07/26 00:15:44;;;;;;;4.53;2.70;;;;;;;13.23;65.22;100505.50;687685;28;1339;-84
2023/07/26 00:16:05;;;;;;;4.80;2.92;;;;;;;13.23;65.45;100506.38;688289;28;1196;-83
2023/07/26 00:16:26;;;;;;;4.77;3.13;;;;;;;13.27;65.48;100507.31;682669;28;1131;-83
2023/07/26 00:16:49;;;;;;;5.35;3.10;;;;;;;13.21;65.37;100491.50;682998;28;1397;-84
2023/07/26 00:17:10;;;;;;;5.07;2.90;;;;;;;13.16;65.30;100497.53;685347;28;1374;-86
2023/07/26 00:17:30;;;;;;;4.90;2.80;;;;;;;13.18;65.51;100491.44;685291;28;1173;-83
2023/07/26 00:17:51;;;;;;;3.60;2.67;;;;;;;13.25;65.40;100504.66;685494;28;1173;-83
2023/07/26 00:18:47;;;;;;;3.67;2.60;;;;;;;13.32;65.41;100521.31;685251;28;1199;-83
2023/07/26 00:19:08;;;;;;;4.63;2.50;;;;;;;13.28;65.54;100506.44;687946;28;946;-83
2023/07/26 00:19:29;;;;;;;5.47;2.83;;;;;;;13.28;65.45;100501.19;682555;28;1345;-84
2023/07/26 00:19:49;;;;;;;7.20;2.88;;;;;;;13.23;65.41;100495.91;680280;29;958;-83
2023/07/26 00:20:10;;;;;;;7.00;2.80;;;;;;;13.25;65.56;100498.53;682701;28;1197;-84
2023/07/26 00:20:31;;;;;;;5.07;2.70;;;;;;;13.30;65.63;100504.72;682523;29;1973;-84
2023/07/26 00:20:52;;;;;;;4.87;2.80;;;;;;;13.25;65.70;100501.13;685544;28;1164;-84
2023/07/26 00:21:12;;;;;;;5.60;2.70;;;;;;;13.24;65.46;100491.53;687052;28;1309;-83
2023/07/26 00:21:33;;;;;;;5.38;2.80;;;;;;;13.31;65.29;100506.47;682727;29;1007;-83
2023/07/26 00:21:54;;;;;;;3.70;2.83;;;;;;;13.25;65.42;100493.28;685536;28;1167;-84
2023/07/26 00:22:15;;;;;;;3.72;3.08;;;;;;;13.26;65.35;100492.41;679964;29;1141;-83
2023/07/26 00:22:35;;;;;;;3.93;3.00;;;;;;;13.27;65.17;100481.09;682663;28;1126;-83
2023/07/26 00:22:56;;;;;;;5.03;3.10;;;;;;;13.30;65.37;100505.56;682857;28;1210;-84
2023/07/26 00:23:17;;;;;;;5.75;3.00;;;;;;;13.25;65.38;100485.41;679767;29;1543;-83
2023/07/26 00:23:37;;;;;;;5.15;2.75;;;;;;;13.32;65.32;100505.59;685408;28;1065;-85
2023/07/26 00:23:59;;;;;;;4.50;2.57;;;;;;;13.26;65.50;100498.56;682775;29;1201;-83
2023/07/26 00:24:19;;;;;;;4.05;2.75;;;;;;;13.32;65.39;100499.50;682731;28;1250;-84
2023/07/26 00:24:40;;;;;;;4.47;3.03;;;;;;;13.25;65.47;100493.28;685355;28;1070;-85
2023/07/26 00:25:01;;;;;;;4.18;2.92;;;;;;;13.30;65.63;100500.34;688313;28;1182;-84
2023/07/26 00:25:21;;;;;;;5.10;2.80;;;;;;;13.28;65.55;100501.19;682594;28;1067;-84
2023/07/26 00:25:42;;;;;;;5.40;2.60;;;;;;;13.28;65.57;100496.81;682167;29;1182;-84
2023/07/26 00:26:03;;;;;;;5.32;2.70;;;;;;;13.30;65.39;100497.72;685417;28;1018;-84
2023/07/26 00:26:23;;;;;;;4.18;2.55;;;;;;;13.28;65.29;100488.09;687977;28;1096;-84
2023/07/26 00:26:44;;;;;;;3.90;2.90;;;;;;;13.32;65.64;100494.25;685409;28;1131;-84
2023/07/26 00:27:05;;;;;;;4.47;3.08;;;;;;;13.40;65.41;100513.56;682753;29;1074;-84
2023/07/26 00:27:26;;;;;;;5.40;3.20;;;;;;;13.36;65.29;100507.41;685369;28;1219;-83
2023/07/26 00:27:46;;;;;;;4.72;2.92;;;;;;;13.32;65.48;100494.25;684785;28;1428;-85
2023/07/26 00:28:07;;;;;;;3.75;2.60;;;;;;;13.34;65.58;100498.63;682631;28;1180;-84
2023/07/26 00:28:29;;;;;;;3.40;2.60;;;;;;;13.31;65.74;100488.13;685306;28;1135;-84
2023/07/26 00:28:50;;;;;;;3.83;2.70;;;;;;;13.38;65.37;100500.44;688343;28;771;-84
2023/07/26 00:29:11;;;;;;;4.05;3.00;;;;;;;13.35;65.68;100495.19;682575;28;1215;-84
2023/07/26 00:29:32;;;;;;;4.40;3.10;;;;;;;13.38;65.61;100503.06;684830;28;1262;-84
2023/07/26 00:29:54;;;;;;;4.30;3.08;;;;;;;13.43;65.73;100504.00;685467;28;1323;-84
2023/07/26 00:30:15;;;;;;;3.88;2.90;;;;;;;13.42;65.59;100502.22;684710;28;1292;-84
2023/07/26 00:30:36;;;;;;;3.13;2.53;;;;;;;13.40;65.55;100501.34;685425;28;902;-84
2023/07/26 00:30:56;;;;;;;3.30;2.60;;;;;;;13.41;65.52;100503.09;682996;29;760;-85
2023/07/26 00:31:17;;;;;;;3.70;2.60;;;;;;;13.49;65.49;100504.91;685037;28;1291;-85
2023/07/26 00:31:41;;;;;;;5.65;3.20;;;;;;;13.46;65.34;100502.28;685307;28;1234;-84
2023/07/26 00:32:03;;;;;;;6.55;3.45;;;;;;;13.54;65.46;100505.88;682808;28;1440;-84
2023/07/26 00:32:23;;;;;;;5.90;3.13;;;;;;;13.58;65.31;100515.50;682632;28;1214;-84
2023/07/26 00:32:44;;;;;;;6.87;3.10;;;;;;;13.50;65.35;100498.81;684695;28;1147;-84
2023/07/26 00:33:05;;;;;;;5.97;2.90;;;;;;;13.59;65.36;100512.06;688107;28;1028;-84
2023/07/26 00:33:26;;;;;;;5.80;3.00;;;;;;;13.58;65.33;100507.66;685450;28;1309;-84
2023/07/26 00:33:46;;;;;;;3.92;3.05;;;;;;;13.58;65.28;100505.03;685514;28;1008;-84
2023/07/26 00:34:07;;;;;;;3.43;3.03;;;;;;;13.58;65.15;100499.78;687572;28;1206;-84
2023/07/26 00:34:28;;;;;;;3.70;3.30;;;;;;;13.60;65.05;100505.94;686124;28;1241;-84
2023/07/26 00:34:49;;;;;;;4.47;3.50;;;;;;;13.60;65.11;100503.31;685735;28;890;-85
2023/07/26 00:35:18;;;;;;;6.35;3.38;;;;;;;13.61;65.24;100507.69;685207;28;1086;-84
2023/07/26 00:35:43;;;;;;;5.68;2.80;;;;;;;13.68;65.23;100514.78;687308;28;1312;-84
2023/07/26 00:36:04;;;;;;;5.32;2.90;;;;;;;13.62;64.85;100509.47;682873;28;1444;-84
2023/07/26 00:36:24;;;;;;;5.55;2.92;;;;;;;13.64;65.07;100507.72;682472;28;1402;-84
2023/07/26 00:36:45;;;;;;;5.22;2.97;;;;;;;13.63;65.04;100505.97;682269;29;1120;-83
2023/07/26 00:37:06;;;;;;;5.30;2.72;;;;;;;13.62;64.96;100509.47;682497;28;1249;-84
2023/07/26 00:37:26;;;;;;;6.20;2.67;;;;;;;13.59;65.03;100500.66;677325;29;1213;-84
2023/07/26 00:37:50;;;;;;;6.70;2.70;;;;;;;13.65;64.90;100513.84;677605;29;748;-83
2023/07/26 00:38:12;;;;;;;4.15;2.70;;;;;;;13.57;64.94;100506.78;684884;28;1477;-84
2023/07/26 00:38:33;;;;;;;4.05;2.90;;;;;;;13.59;65.18;100505.91;685207;28;1321;-84
2023/07/26 00:38:53;;;;;;;3.67;2.90;;;;;;;13.59;65.23;100506.81;682750;28;1221;-84
2023/07/26 00:39:14;;;;;;;3.97;3.10;;;;;;;13.60;65.07;100505.03;677081;29;1199;-84
2023/07/26 00:39:35;;;;;;;3.90;3.00;;;;;;;13.58;65.11;100505.03;679912;29;1243;-84
2023/07/26 00:39:56;;;;;;;4.40;3.15;;;;;;;13.60;64.83;100505.94;680244;29;792;-84
2023/07/26 00:40:17;;;;;;;4.05;3.00;;;;;;;13.65;65.17;100519.97;679913;29;1954;-85
2023/07/26 00:40:38;;;;;;;5.85;3.30;;;;;;;13.69;64.95;100534.88;682580;29;1184;-84
2023/07/26 00:41:00;;;;;;;6.60;3.20;;;;;;;13.62;65.15;100514.69;682491;29;1256;-84
2023/07/26 00:41:21;;;;;;;6.85;3.30;;;;;;;13.64;65.14;100506.84;688046;28;1228;-84
2023/07/26 00:41:42;;;;;;;5.70;3.00;;;;;;;13.68;65.10;100509.53;682654;28;1330;-84
2023/07/26 00:42:03;;;;;;;4.88;3.05;;;;;;;13.67;64.88;100510.41;682827;28;1293;-84
2023/07/26 00:42:24;;;;;;;4.55;3.00;;;;;;;13.65;65.21;100498.97;685328;28;1165;-84
2023/07/26 00:42:44;;;;;;;4.47;3.03;;;;;;;13.67;64.86;100510.41;682701;28;1165;-85
2023/07/26 00:43:05;;;;;;;4.30;3.00;;;;;;;13.69;64.88;100513.91;680121;29;1076;-84
2023/07/26 00:43:26;;;;;;;5.80;3.10;;;;;;;13.67;64.86;100509.50;681967;29;1218;-84
2023/07/26 00:43:47;;;;;;;5.80;3.10;;;;;;;13.71;64.80;100520.03;685594;28;817;-84
2023/07/26 00:44:08;;;;;;;6.03;3.10;;;;;;;13.64;65.06;100505.09;685483;28;1046;-85
2023/07/26 00:44:28;;;;;;;4.05;2.90;;;;;;;13.68;64.92;100509.53;679858;29;1149;-85
2023/07/26 00:44:49;;;;;;;4.30;2.90;;;;;;;13.76;64.95;100519.22;677427;29;1536;-85
2023/07/26 00:45:10;;;;;;;3.90;2.88;;;;;;;13.79;64.86;100522.75;677467;29;1196;-85
2023/07/26 00:45:33;;;;;;;4.35;3.10;;;;;;;13.68;64.97;100512.16;679855;29;1191;-84
2023/07/26 00:45:54;;;;;;;5.40;3.30;;;;;;;13.71;64.91;100508.69;682530;28;1213;-85
2023/07/26 00:46:16;;;;;;;5.18;3.20;;;;;;;13.77;64.79;100519.22;690022;28;1328;-85
2023/07/26 00:46:36;;;;;;;5.30;3.30;;;;;;;13.68;64.72;100508.63;687912;28;1230;-83
2023/07/26 00:46:57;;;;;;;4.47;3.22;;;;;;;13.76;64.55;100516.59;685430;28;1040;-81
2023/07/26 00:47:18;;;;;;;6.13;3.33;;;;;;;13.76;65.06;100524.47;682637;29;1069;-83
2023/07/26 00:47:39;;;;;;;7.40;3.20;;;;;;;13.75;64.92;100520.94;688689;28;1621;-83
2023/07/26 00:48:00;;;;;;;7.28;3.05;;;;;;;13.74;64.93;100511.31;685126;28;1175;-85
2023/07/26 00:48:21;;;;;;;5.57;3.00;;;;;;;13.73;64.73;100514.81;690507;28;1222;-84
2023/07/26 00:48:43;;;;;;;3.60;2.95;;;;;;;13.71;64.88;100508.69;685162;28;1307;-84
2023/07/26 00:49:04;;;;;;;4.10;3.10;;;;;;;13.81;64.65;100525.38;677891;28;1255;-84
2023/07/26 00:49:25;;;;;;;4.50;3.00;;;;;;;13.73;64.92;100506.94;682498;28;1271;-85
2023/07/26 00:49:48;;;;;;;4.85;3.10;;;;;;;13.82;64.52;100527.13;682737;28;1267;-84
2023/07/26 00:50:09;;;;;;;4.38;2.95;;;;;;;13.82;64.59;100529.75;687931;28;1348;-83
2023/07/26 00:50:30;;;;;;;4.32;3.00;;;;;;;13.86;64.89;100526.31;680014;29;1133;-84
2023/07/26 00:50:51;;;;;;;4.50;2.97;;;;;;;13.71;64.79;100504.31;685565;28;1206;-83
2023/07/26 00:51:13;;;;;;;5.88;3.08;;;;;;;13.80;64.54;100521.88;688025;28;1005;-83
2023/07/26 00:51:35;;;;;;;7.10;3.10;;;;;;;13.81;64.48;100517.50;685432;28;1045;-83
2023/07/26 00:51:56;;;;;;;7.75;3.20;;;;;;;13.82;64.79;100529.75;688360;28;1355;-83
2023/07/26 00:52:17;;;;;;;6.35;3.20;;;;;;;13.84;64.82;100520.19;679945;29;931;-83
2023/07/26 00:52:39;;;;;;;5.60;3.15;;;;;;;13.81;64.68;100520.13;685556;28;1152;-83
2023/07/26 00:53:00;;;;;;;5.38;3.08;;;;;;;13.81;64.48;100520.13;685346;28;1053;-84
2023/07/26 00:53:20;;;;;;;6.50;3.00;;;;;;;13.89;64.61;100522.84;679843;28;1304;-83
2023/07/26 00:53:41;;;;;;;6.50;3.17;;;;;;;13.78;64.35;100514.88;680007;28;1314;-85
2023/07/26 00:54:03;;;;;;;7.03;3.40;;;;;;;13.81;64.54;100518.41;685071;28;1212;-83
2023/07/26 00:54:24;;;;;;;6.50;3.50;;;;;;;13.87;64.38;100525.44;682471;28;1256;-84
2023/07/26 00:54:45;;;;;;;5.82;3.28;;;;;;;13.82;64.37;100517.53;679309;29;1207;-83
2023/07/26 00:55:07;;;;;;;5.90;3.20;;;;;;;13.79;64.59;100507.03;687832;28;1284;-83
2023/07/26 00:55:27;;;;;;;7.10;3.30;;;;;;;13.80;64.38;100508.78;687824;28;1148;-83
2023/07/26 00:55:48;;;;;;;9.35;3.42;;;;;;;13.82;64.48;100516.63;684580;28;1338;-83
2023/07/26 00:56:09;;;;;;;8.45;3.40;;;;;;;13.84;64.32;100517.56;688011;28;988;-83
2023/07/26 00:56:30;;;;;;;7.05;3.33;;;;;;;13.79;64.46;100504.41;687624;28;1068;-84
2023/07/26 00:56:51;;;;;;;5.35;3.60;;;;;;;13.79;64.33;100511.38;685459;28;1528;-83
2023/07/26 00:57:13;;;;;;;5.53;3.40;;;;;;;13.83;64.37;100516.66;685131;28;1056;-83
2023/07/26 00:57:33;;;;;;;5.90;3.20;;;;;;;13.78;64.52;100507.84;687941;28;952;-83
2023/07/26 00:57:55;;;;;;;5.27;3.00;;;;;;;13.89;64.37;100528.09;682559;29;1264;-84
2023/07/26 00:58:16;;;;;;;4.50;3.10;;;;;;;13.80;64.44;100513.13;677513;29;1417;-82
2023/07/26 00:58:39;;;;;;;4.65;3.38;;;;;;;13.82;64.33;100514.03;685280;28;937;-83
2023/07/26 00:59:01;;;;;;;4.88;3.40;;;;;;;13.80;64.54;100506.16;687102;28;1341;-84
2023/07/26 00:59:21;;;;;;;4.90;3.28;;;;;;;13.89;64.18;100526.34;679809;29;1210;-84
2023/07/26 00:59:44;;;;;;;5.15;3.20;;;;;;;13.81;64.40;100512.25;680011;29;1205;-84
2023/07/26 01:00:06;;;;;;;5.10;3.10;;;;;;;13.82;64.35;100511.41;682690;29;1105;-84
2023/07/26 01:00:27;;;;;;;5.10;3.28;;;;;;;13.85;64.04;100514.06;684838;28;1978;-83
2023/07/26 01:00:48;;;;;;;5.60;3.10;;;;;;;13.79;64.40;100512.28;682582;28;1085;-84
2023/07/26 01:01:08;;;;;;;5.55;3.15;;;;;;;13.77;64.35;100507.88;682627;29;1105;-84
2023/07/26 01:01:29;;;;;;;6.70;3.20;;;;;;;13.90;64.55;100529.84;682206;29;1104;-83
2023/07/26 01:02:01;;;;;;;6.50;3.07;;;;;;;13.81;64.32;100514.88;688144;28;1170;-83
2023/07/26 01:02:22;;;;;;;5.45;3.00;;;;;;;13.80;64.46;100508.78;690508;28;1045;-83
2023/07/26 01:02:43;;;;;;;5.00;3.00;;;;;;;13.81;64.32;100514.88;690650;28;1326;-83
2023/07/26 01:03:04;;;;;;;4.70;3.08;;;;;;;13.73;64.48;100501.72;690651;28;1000;-83
2023/07/26 01:03:25;;;;;;;6.00;3.10;;;;;;;13.81;64.61;100509.63;679840;29;1049;-84
2023/07/26 01:03:46;;;;;;;7.80;3.17;;;;;;;13.76;64.83;100506.13;685159;28;1018;-83
2023/07/26 01:04:06;;;;;;;8.30;3.30;;;;;;;13.79;64.46;100516.63;682494;29;1272;-85
2023/07/26 01:04:27;;;;;;;7.53;3.40;;;;;;;13.81;64.63;100521.03;685168;28;1180;-83
2023/07/26 01:04:50;;;;;;;6.78;3.60;;;;;;;13.80;64.54;100519.28;682838;28;1355;-83
2023/07/26 01:05:11;;;;;;;6.03;3.25;;;;;;;13.81;64.87;100515.78;685156;28;1319;-83
2023/07/26 01:06:01;;;;;;;5.57;3.20;;;;;;;13.83;64.74;100521.91;684831;28;988;-83
2023/07/26 01:06:36;;;;;;;4.95;2.92;;;;;;;13.85;64.89;100527.19;692941;28;1037;-83
2023/07/26 01:07:14;;;;;;;6.05;3.10;;;;;;;13.76;64.77;100519.22;685036;28;1337;-83
2023/07/26 01:07:52;;;;;;;6.63;2.90;;;;;;;13.80;64.73;100524.50;685113;28;1421;-84
2023/07/26 01:08:24;;;;;;;7.13;2.92;;;;;;;13.71;64.84;100504.31;685014;28;1103;-84
2023/07/26 01:09:00;;;;;;;5.43;2.70;;;;;;;13.84;64.87;100533.28;680981;28;1326;-84
2023/07/26 01:09:46;;;;;;;4.85;3.08;;;;;;;13.85;64.80;100527.19;682966;28;1109;-84
2023/07/26 01:10:21;;;;;;;5.43;3.30;;;;;;;13.76;64.84;100511.34;685109;28;1156;-84
2023/07/26 01:10:53;;;;;;;4.90;3.20;;;;;;;13.78;65.36;100514.88;687517;28;1051;-84
2023/07/26 01:11:31;;;;;;;5.32;2.95;;;;;;;13.81;64.66;100522.75;686664;28;1104;-84
2023/07/26 01:12:04;;;;;;;7.93;3.17;;;;;;;13.85;64.75;100527.19;679988;28;871;-84
2023/07/26 01:12:33;;;;;;;4.25;3.10;;;;;;;13.85;64.95;100521.94;679737;29;978;-84
2023/07/26 01:13:04;;;;;;;5.30;3.10;;;;;;;13.84;64.81;100522.81;687908;28;1384;-84
2023/07/26 01:13:40;;;;;;;5.97;3.17;;;;;;;13.75;64.93;100509.59;692942;28;1229;-84
2023/07/26 01:14:13;;;;;;;5.85;3.42;;;;;;;13.83;64.93;100523.69;688355;28;1303;-84
2023/07/26 01:14:53;;;;;;;5.10;3.30;;;;;;;13.85;65.09;100528.03;687640;28;1393;-84
2023/07/26 01:15:15;;;;;;;5.00;3.38;;;;;;;13.79;65.06;100516.63;687274;28;1012;-84
2023/07/26 01:15:37;;;;;;;5.43;3.42;;;;;;;13.76;64.83;100512.22;682024;29;1149;-84
2023/07/26 01:15:59;;;;;;;6.10;3.50;;;;;;;13.82;64.98;100519.25;680114;29;1280;-84
2023/07/26 01:16:21;;;;;;;6.00;3.38;;;;;;;13.73;64.97;100503.44;679992;29;1206;-84
2023/07/26 01:16:43;;;;;;;6.40;3.13;;;;;;;13.83;64.79;100523.69;685235;28;1357;-85
2023/07/26 01:17:04;;;;;;;7.55;3.13;;;;;;;13.81;64.92;100525.38;687801;28;1122;-84
2023/07/26 01:17:25;;;;;;;6.70;3.30;;;;;;;13.77;65.17;100513.13;679862;29;1018;-84
2023/07/26 01:17:46;;;;;;;7.20;3.40;;;;;;;13.79;64.83;100512.28;679996;28;1344;-85
2023/07/26 01:18:11;;;;;;;6.10;3.70;;;;;;;13.82;65.15;100524.50;679974;29;1054;-84
2023/07/26 01:18:32;;;;;;;5.57;3.30;;;;;;;13.72;65.02;100510.44;685209;28;1352;-84
2023/07/26 01:18:52;;;;;;;4.70;3.30;;;;;;;13.76;64.93;100516.59;680261;29;776;-84
2023/07/26 01:19:13;;;;;;;5.15;3.47;;;;;;;13.82;64.96;100528.03;685080;28;1247;-84
2023/07/26 01:19:34;;;;;;;6.40;3.42;;;;;;;13.80;65.09;100526.25;682462;28;1427;-84
2023/07/26 01:19:56;;;;;;;7.03;3.40;;;;;;;13.81;65.05;100520.13;685350;28;1281;-84
2023/07/26 01:20:17;;;;;;;5.18;3.20;;;;;;;13.85;65.28;100527.19;679892;28;1923;-83
2023/07/26 01:20:38;;;;;;;5.60;3.47;;;;;;;13.75;65.29;100506.97;677289;29;944;-84
2023/07/26 01:21:01;;;;;;;4.70;3.45;;;;;;;13.79;65.16;100512.28;682521;28;1452;-84
2023/07/26 01:21:22;;;;;;;7.20;3.65;;;;;;;13.84;64.63;100525.44;682661;29;1352;-84
2023/07/26 01:21:43;;;;;;;7.22;3.70;;;;;;;13.80;65.03;100510.50;682527;29;1216;-84
2023/07/26 01:22:04;;;;;;;6.93;3.22;;;;;;;13.81;65.14;100513.16;682969;28;1187;-84
2023/07/26 01:22:24;;;;;;;6.75;3.15;;;;;;;13.84;64.95;100514.94;685042;28;1389;-84
2023/07/26 01:22:46;;;;;;;8.82;3.22;;;;;;;13.88;65.10;100521.97;682569;28;1428;-84
2023/07/26 01:23:08;;;;;;;10.10;3.47;;;;;;;13.95;65.25;100529.03;682541;28;1275;-85
2023/07/26 01:23:29;;;;;;;7.57;3.30;;;;;;;13.92;65.01;100515.91;682325;28;1340;-84
2023/07/26 01:23:50;;;;;;;5.40;3.40;;;;;;;13.92;64.98;100521.13;682558;28;1179;-84
2023/07/26 01:24:10;;;;;;;4.70;3.55;;;;;;;14.00;64.96;100528.22;679967;29;1046;-84
2023/07/26 01:24:31;;;;;;;5.45;3.90;;;;;;;13.91;65.03;100511.50;684626;28;1061;-84
2023/07/26 01:24:52;;;;;;;6.78;3.80;;;;;;;13.91;64.78;100508.91;682729;29;1265;-85
2023/07/26 01:25:13;;;;;;;9.93;3.70;;;;;;;13.96;64.82;100520.28;685322;28;1301;-85
2023/07/26 01:25:35;;;;;;;9.70;3.50;;;;;;;14.01;64.75;100527.34;679487;29;1004;-85
2023/07/26 01:25:57;;;;;;;7.43;3.30;;;;;;;13.98;65.04;100520.31;680504;28;1277;-84
2023/07/26 01:26:18;;;;;;;4.60;3.47;;;;;;;14.05;65.05;100529.13;685454;28;1157;-84
2023/07/26 01:26:38;;;;;;;5.00;3.60;;;;;;;14.00;64.84;100515.09;682537;28;1216;-84
2023/07/26 01:27:00;;;;;;;5.05;3.72;;;;;;;14.00;64.72;100517.72;682713;28;1295;-85
2023/07/26 01:27:20;;;;;;;4.60;3.60;;;;;;;13.93;64.79;100504.53;687759;28;1153;-85
2023/07/26 01:27:41;;;;;;;5.10;3.40;;;;;;;13.96;64.88;100509.78;685043;28;1156;-85
2023/07/26 01:28:03;;;;;;;6.10;3.22;;;;;;;13.96;64.85;100507.16;682845;28;1200;-83
2023/07/26 01:28:23;;;;;;;6.22;3.15;;;;;;;14.06;64.62;100525.63;685489;28;1107;-84
2023/07/26 01:28:44;;;;;;;5.75;3.10;;;;;;;14.07;64.88;100524.78;680039;28;1139;-84
2023/07/26 01:29:05;;;;;;;4.72;3.08;;;;;;;14.00;65.06;100515.09;684997;28;1321;-84
2023/07/26 01:29:25;;;;;;;5.10;3.00;;;;;;;14.09;64.86;100534.41;682602;29;997;-84
2023/07/26 01:29:50;;;;;;;6.13;3.20;;;;;;;14.01;64.66;100507.22;683065;29;811;-84
2023/07/26 01:30:11;;;;;;;7.88;3.20;;;;;;;13.97;64.53;100511.56;685128;28;1154;-85
2023/07/26 01:30:33;;;;;;;7.57;3.30;;;;;;;14.01;64.77;100512.47;684669;28;1365;-84
2023/07/26 01:30:58;;;;;;;7.43;3.40;;;;;;;13.95;64.59;100515.06;682627;28;1433;-85
2023/07/26 01:31:22;;;;;;;6.82;3.70;;;;;;;14.04;64.58;100520.38;679881;28;1386;-84
2023/07/26 01:31:42;;;;;;;9.10;3.90;;;;;;;14.04;64.54;100519.50;682563;29;1130;-84
2023/07/26 01:32:05;;;;;;;8.30;3.80;;;;;;;14.02;64.68;100521.22;685111;28;1156;-84
2023/07/26 01:32:30;;;;;;;6.85;3.70;;;;;;;13.98;64.69;100513.34;685056;28;1110;-84
2023/07/26 01:32:54;;;;;;;5.30;3.30;;;;;;;14.02;64.68;100514.22;685218;28;1393;-85
2023/07/26 01:33:17;;;;;;;5.70;3.20;;;;;;;13.97;64.73;100506.31;678822;29;1096;-83
2023/07/26 01:33:39;;;;;;;4.80;3.10;;;;;;;14.08;64.69;100518.66;685231;28;1329;-84
2023/07/26 01:34:01;;;;;;;4.90;3.20;;;;;;;13.94;64.59;100508.91;682628;29;1278;-83
2023/07/26 01:34:22;;;;;;;4.32;3.13;;;;;;;14.01;64.92;100516.84;685027;28;1387;-84
2023/07/26 01:34:43;;;;;;;5.15;3.25;;;;;;;14.05;64.65;100524.75;685279;28;1212;-84
2023/07/26 01:35:04;;;;;;;6.53;3.40;;;;;;;14.01;64.76;100519.47;685030;28;1499;-84
2023/07/26 01:35:26;;;;;;;6.40;3.20;;;;;;;13.98;64.67;100515.06;682759;28;1387;-84
2023/07/26 01:35:49;;;;;;;5.78;3.13;;;;;;;14.03;64.69;100517.72;682238;29;843;-85
2023/07/26 01:36:11;;;;;;;5.20;3.40;;;;;;;14.07;64.52;100522.16;685084;28;1144;-85
2023/07/26 01:36:34;;;;;;;6.20;3.50;;;;;;;14.05;64.52;100527.38;685170;28;978;-84
2023/07/26 01:36:55;;;;;;;5.95;3.58;;;;;;;14.01;64.60;100516.84;677447;29;1379;-85
2023/07/26 01:37:18;;;;;;;5.65;3.60;;;;;;;14.02;64.40;100513.34;684436;28;1306;-83
2023/07/26 01:37:41;;;;;;;5.20;3.70;;;;;;;14.10;64.71;100527.41;685107;28;1040;-84
2023/07/26 01:38:03;;;;;;;4.60;3.60;;;;;;;14.03;64.46;100510.75;677390;29;1248;-84
2023/07/26 01:38:25;;;;;;;5.60;3.63;;;;;;;14.04;64.42;100519.50;679726;29;1252;-84
2023/07/26 01:38:46;;;;;;;5.30;3.50;;;;;;;14.02;64.51;100515.97;677395;29;817;-84
2023/07/26 01:39:09;;;;;;;6.70;3.60;;;;;;;14.07;64.34;100520.41;682251;29;1268;-84
2023/07/26 01:39:30;;;;;;;6.80;3.80;;;;;;;14.01;64.50;100511.59;679652;29;1092;-84
2023/07/26 01:39:52;;;;;;;6.97;3.70;;;;;;;14.02;64.82;100510.72;682662;28;796;-83
2023/07/26 01:40:13;;;;;;;6.22;3.58;;;;;;;14.01;64.58;100506.34;679552;28;1249;-83
2023/07/26 01:40:35;;;;;;;5.40;3.25;;;;;;;14.06;64.43;100515.13;684969;28;2014;-83
2023/07/26 01:40:58;;;;;;;6.13;3.20;;;;;;;14.04;64.48;100514.25;685205;28;1308;-84
2023/07/26 01:41:19;;;;;;;6.00;3.20;;;;;;;14.09;64.76;100520.41;682484;28;1075;-84
2023/07/26 01:41:40;;;;;;;6.57;3.60;;;;;;;14.02;64.52;100513.34;682631;29;1023;-84
2023/07/26 01:42:01;;;;;;;5.60;3.72;;;;;;;14.14;64.68;100526.63;685777;28;1175;-84
2023/07/26 01:42:24;;;;;;;5.75;3.78;;;;;;;14.14;64.62;100524.00;685176;28;1096;-83
2023/07/26 01:42:44;;;;;;;5.53;3.53;;;;;;;14.04;64.43;100509.88;684953;28;1357;-83
2023/07/26 01:43:05;;;;;;;4.95;3.45;;;;;;;14.04;64.62;100509.00;685137;28;1236;-84
2023/07/26 01:43:26;;;;;;;5.30;3.40;;;;;;;14.10;64.78;100525.69;687722;28;1273;-85
2023/07/26 01:43:47;;;;;;;6.25;3.50;;;;;;;14.05;64.52;100509.00;685351;28;853;-84
2023/07/26 01:44:07;;;;;;;8.23;3.70;;;;;;;14.09;64.46;100512.56;682581;29;1280;-83
2023/07/26 01:44:37;;;;;;;7.53;3.77;;;;;;;14.15;64.62;100515.28;678109;28;1242;-84
2023/07/26 01:45:05;;;;;;;5.10;3.40;;;;;;;14.20;64.25;100523.19;685386;28;945;-84
2023/07/26 01:45:26;;;;;;;4.82;3.58;;;;;;;14.10;64.36;100507.31;682096;29;1381;-83
2023/07/26 01:45:46;;;;;;;5.47;3.80;;;;;;;14.11;64.32;100505.59;679386;29;841;-84
2023/07/26 01:46:15;;;;;;;5.50;3.67;;;;;;;14.18;64.20;100525.78;682535;29;904;-84
2023/07/26 01:46:35;;;;;;;5.50;3.30;;;;;;;14.17;64.37;100516.16;685117;28;1228;-85
2023/07/26 01:46:56;;;;;;;6.20;3.30;;;;;;;14.13;64.38;100509.09;685328;28;1195;-84